Time;durP1;ratioP1;P1;durP2;ratioP2;P2;SDS_P1;SDS_P2;PMS_P1;PMS_P2;Temp;Humidity;BMP_temperature;BMP_pressure;BME280_temperature;BME280_humidity;BME280_pressure;Samples;Min_cycle;Max_cycle;Signal;HPM_P1;HPM_P2
2022/01/03 00:02:00;;;;;;;15.43;3.33;;;;;;;;;;5069464;28;20045;-70
2022/01/03 00:04:26;;;;;;;14.68;2.80;;;;;;;;;;5064826;28;20049;-71
2022/01/03 00:06:53;;;;;;;10.75;2.85;;;;;;;;;;5066805;28;20148;-72
2022/01/03 00:09:20;;;;;;;14.85;2.30;;;;;;;;;;5064462;28;20428;-72
2022/01/03 00:11:47;;;;;;;12.63;2.50;;;;;;;;;;5068543;28;20053;-71
2022/01/03 00:14:13;;;;;;;12.75;2.92;;;;;;;;;;5071267;28;20053;-71
2022/01/03 00:16:39;;;;;;;11.80;2.42;;;;;;;;;;5066438;28;20053;-72
2022/01/03 00:19:06;;;;;;;16.65;3.65;;;;;;;;;;5067989;28;20073;-73
2022/01/03 00:21:45;;;;;;;15.63;2.90;;;;;;;;;;5070419;28;20055;-71
2022/01/03 00:24:12;;;;;;;23.35;4.32;;;;;;;;;;5064491;28;20053;-72
2022/01/03 00:26:39;;;;;;;15.98;2.63;;;;;;;;;;5073534;28;20053;-72
2022/01/03 00:29:10;;;;;;;14.13;3.55;;;;;;;;;;5074482;28;20139;-72
2022/01/03 00:31:37;;;;;;;19.30;3.42;;;;;;;;;;5058728;28;20055;-72
2022/01/03 00:34:05;;;;;;;12.80;2.55;;;;;;;;;;5060269;28;20231;-71
2022/01/03 00:36:32;;;;;;;16.85;2.67;;;;;;;;;;5063099;28;20052;-71
2022/01/03 00:38:58;;;;;;;18.48;2.85;;;;;;;;;;5067921;28;20535;-71
2022/01/03 00:41:24;;;;;;;17.80;3.00;;;;;;;;;;5070251;28;20056;-72
2022/01/03 00:43:52;;;;;;;16.08;3.03;;;;;;;;;;5073329;28;20057;-72
2022/01/03 00:46:18;;;;;;;17.48;2.50;;;;;;;;;;5074138;28;20060;-72
2022/01/03 00:48:45;;;;;;;19.58;3.00;;;;;;;;;;5068244;28;20128;-71
2022/01/03 00:51:14;;;;;;;16.55;3.42;;;;;;;;;;5056523;28;20429;-71
2022/01/03 00:53:44;;;;;;;16.50;2.70;;;;;;;;;;5053662;28;20053;-70
2022/01/03 00:56:14;;;;;;;25.65;3.45;;;;;;;;;;5068005;28;20518;-72
2022/01/03 00:58:55;;;;;;;18.27;3.17;;;;;;;;;;5054963;28;20053;-73
2022/01/03 01:01:22;;;;;;;21.20;4.45;;;;;;;;;;5070802;28;20059;-73
2022/01/03 01:03:52;;;;;;;15.80;3.40;;;;;;;;;;5073035;28;20092;-72
2022/01/03 01:06:19;;;;;;;19.45;3.47;;;;;;;;;;5073038;28;20053;-73
2022/01/03 01:08:47;;;;;;;14.00;2.60;;;;;;;;;;5071925;28;20085;-72
2022/01/03 01:11:14;;;;;;;16.35;3.47;;;;;;;;;;5073924;28;20056;-72
2022/01/03 01:13:43;;;;;;;18.88;3.58;;;;;;;;;;5072526;28;20440;-72
2022/01/03 01:16:09;;;;;;;27.00;3.38;;;;;;;;;;5073645;28;20052;-71
2022/01/03 01:18:37;;;;;;;23.38;4.88;;;;;;;;;;5071684;28;20136;-73
2022/01/03 01:21:04;;;;;;;23.30;3.50;;;;;;;;;;5072911;28;20053;-72
2022/01/03 01:23:31;;;;;;;26.30;3.55;;;;;;;;;;5073421;28;20080;-73
2022/01/03 01:28:43;;;;;;;21.88;2.97;;;;;;;;;;5074116;28;20428;-72
2022/01/03 01:31:11;;;;;;;21.17;4.15;;;;;;;;;;5089117;28;20056;-73
2022/01/03 01:33:38;;;;;;;13.55;3.38;;;;;;;;;;5071661;28;20053;-72
2022/01/03 01:36:11;;;;;;;22.10;3.38;;;;;;;;;;5071838;28;21058;-72
2022/01/03 01:38:39;;;;;;;22.67;3.60;;;;;;;;;;5073356;28;20064;-72
2022/01/03 01:41:06;;;;;;;24.83;3.78;;;;;;;;;;5073497;28;20051;-72
2022/01/03 01:43:37;;;;;;;18.52;3.22;;;;;;;;;;5074722;28;20438;-73
2022/01/03 01:46:06;;;;;;;20.20;3.58;;;;;;;;;;5073436;28;20053;-73
2022/01/03 01:48:33;;;;;;;20.95;3.13;;;;;;;;;;5072305;28;20057;-73
2022/01/03 01:51:00;;;;;;;24.35;3.83;;;;;;;;;;5078858;28;20067;-73
2022/01/03 01:53:27;;;;;;;22.20;3.05;;;;;;;;;;5082003;28;20078;-72
2022/01/03 01:55:54;;;;;;;23.05;3.63;;;;;;;;;;5073288;28;20049;-73
2022/01/03 01:58:24;;;;;;;27.33;3.85;;;;;;;;;;5073465;28;20053;-72
2022/01/03 02:00:56;;;;;;;20.40;4.03;;;;;;;;;;5073755;28;20095;-71
2022/01/03 02:03:35;;;;;;;21.25;3.90;;;;;;;;;;5071756;28;20056;-73
2022/01/03 02:06:07;;;;;;;22.38;2.90;;;;;;;;;;5070703;28;20052;-71
2022/01/03 02:08:38;;;;;;;19.65;3.05;;;;;;;;;;5071467;28;20579;-70
2022/01/03 02:11:12;;;;;;;24.25;4.38;;;;;;;;;;5068819;28;20053;-69
2022/01/03 02:13:39;;;;;;;22.15;3.60;;;;;;;;;;5071629;28;20060;-71
2022/01/03 02:16:07;;;;;;;17.60;3.63;;;;;;;;;;5073059;28;20059;-72
2022/01/03 02:18:34;;;;;;;27.02;4.75;;;;;;;;;;5082381;28;20492;-72
2022/01/03 02:21:01;;;;;;;24.48;3.83;;;;;;;;;;5076588;28;20059;-71
2022/01/03 02:23:28;;;;;;;23.05;3.63;;;;;;;;;;5071155;28;20537;-71
2022/01/03 02:25:54;;;;;;;18.73;3.63;;;;;;;;;;5072091;28;20056;-73
2022/01/03 02:28:22;;;;;;;19.38;3.83;;;;;;;;;;5072494;28;20049;-72
2022/01/03 02:30:49;;;;;;;26.77;4.78;;;;;;;;;;5072842;28;20061;-73
2022/01/03 02:33:16;;;;;;;23.75;4.55;;;;;;;;;;5081575;28;20056;-71
2022/01/03 02:35:43;;;;;;;31.58;4.47;;;;;;;;;;5087323;28;20513;-72
2022/01/03 02:38:10;;;;;;;24.63;3.20;;;;;;;;;;5071919;28;20559;-73
2022/01/03 02:40:36;;;;;;;23.33;4.55;;;;;;;;;;5074682;28;20056;-72
2022/01/03 02:43:03;;;;;;;23.30;4.10;;;;;;;;;;5072755;28;20060;-73
2022/01/03 02:45:29;;;;;;;22.25;3.55;;;;;;;;;;5073290;28;20053;-72
2022/01/03 02:48:01;;;;;;;25.60;4.15;;;;;;;;;;5072064;28;20099;-72
2022/01/03 02:50:29;;;;;;;22.80;4.20;;;;;;;;;;5072289;28;20053;-72
2022/01/03 02:52:55;;;;;;;22.85;3.72;;;;;;;;;;5072675;28;20059;-73
2022/01/03 02:55:22;;;;;;;19.55;4.03;;;;;;;;;;5072328;28;20049;-72
2022/01/03 02:57:50;;;;;;;24.20;4.20;;;;;;;;;;5074623;28;20056;-72
2022/01/03 03:00:20;;;;;;;27.25;3.60;;;;;;;;;;5072382;28;20523;-72
2022/01/03 03:02:47;;;;;;;20.55;3.35;;;;;;;;;;5070801;28;20072;-71
2022/01/03 03:05:14;;;;;;;26.88;4.35;;;;;;;;;;5062750;28;20496;-72
2022/01/03 03:07:41;;;;;;;31.98;4.45;;;;;;;;;;5064612;28;20049;-73
2022/01/03 03:10:09;;;;;;;27.77;5.15;;;;;;;;;;5079576;28;20053;-74
2022/01/03 03:12:36;;;;;;;32.38;4.05;;;;;;;;;;5074590;28;20057;-72
2022/01/03 03:15:03;;;;;;;24.75;5.88;;;;;;;;;;5072254;28;20059;-72
2022/01/03 03:17:30;;;;;;;27.83;4.50;;;;;;;;;;5073239;28;20147;-72
2022/01/03 03:20:00;;;;;;;35.42;4.22;;;;;;;;;;5075494;28;20061;-72
2022/01/03 03:22:29;;;;;;;26.25;4.57;;;;;;;;;;5076040;28;20049;-72
2022/01/03 03:25:15;;;;;;;26.85;4.57;;;;;;;;;;5075646;28;20140;-72
2022/01/03 03:27:46;;;;;;;26.80;4.60;;;;;;;;;;5075745;28;20440;-72
2022/01/03 03:30:19;;;;;;;24.63;4.40;;;;;;;;;;5075684;28;20084;-73
2022/01/03 03:32:47;;;;;;;27.55;4.25;;;;;;;;;;5059546;28;20149;-74
2022/01/03 03:35:13;;;;;;;28.50;4.30;;;;;;;;;;5057230;28;20519;-73
2022/01/03 03:37:39;;;;;;;27.60;5.60;;;;;;;;;;5075944;28;20060;-73
2022/01/03 03:40:06;;;;;;;23.85;4.07;;;;;;;;;;5075342;28;20064;-72
2022/01/03 03:42:33;;;;;;;26.90;3.67;;;;;;;;;;5074495;28;20414;-72
2022/01/03 03:44:59;;;;;;;33.85;5.05;;;;;;;;;;5075606;28;20055;-72
2022/01/03 03:47:26;;;;;;;23.88;3.95;;;;;;;;;;5075201;28;20493;-71
2022/01/03 03:49:52;;;;;;;29.50;5.10;;;;;;;;;;5075272;28;20049;-73
2022/01/03 03:52:18;;;;;;;30.13;4.35;;;;;;;;;;5075286;28;20060;-73
2022/01/03 03:54:45;;;;;;;35.20;4.22;;;;;;;;;;5075410;28;20049;-72
2022/01/03 03:57:12;;;;;;;27.42;5.03;;;;;;;;;;5075504;28;20060;-73
2022/01/03 03:59:38;;;;;;;36.65;6.72;;;;;;;;;;5075210;28;20057;-73
2022/01/03 04:02:05;;;;;;;29.52;4.28;;;;;;;;;;5077077;28;20487;-72
2022/01/03 04:04:33;;;;;;;41.33;7.00;;;;;;;;;;5075161;28;20402;-73
2022/01/03 04:07:00;;;;;;;33.65;5.57;;;;;;;;;;5074991;28;20063;-71
2022/01/03 04:09:27;;;;;;;33.47;5.53;;;;;;;;;;5088318;28;20049;-73
2022/01/03 04:11:53;;;;;;;26.35;4.65;;;;;;;;;;5075583;28;20057;-73
2022/01/03 04:14:19;;;;;;;40.47;6.40;;;;;;;;;;5074862;28;20056;-72
2022/01/03 04:16:46;;;;;;;30.30;5.82;;;;;;;;;;5057173;28;20058;-72
2022/01/03 04:19:12;;;;;;;41.92;5.72;;;;;;;;;;5075398;28;20503;-72
2022/01/03 04:21:42;;;;;;;31.83;5.70;;;;;;;;;;5077025;28;20045;-73
2022/01/03 04:24:09;;;;;;;27.65;4.65;;;;;;;;;;5074999;28;20057;-74
2022/01/03 04:26:36;;;;;;;42.35;5.28;;;;;;;;;;5074274;28;20057;-71
2022/01/03 04:29:03;;;;;;;38.05;5.78;;;;;;;;;;5074959;28;20053;-71
2022/01/03 04:31:30;;;;;;;41.08;5.95;;;;;;;;;;5079658;28;20485;-72
2022/01/03 04:33:56;;;;;;;34.42;5.13;;;;;;;;;;5072726;28;20061;-73
2022/01/03 04:36:24;;;;;;;30.85;5.28;;;;;;;;;;5072563;28;20075;-71
2022/01/03 04:38:50;;;;;;;41.03;5.80;;;;;;;;;;5073681;28;20065;-73
2022/01/03 04:41:16;;;;;;;36.53;6.25;;;;;;;;;;5074158;28;20049;-71
2022/01/03 04:43:43;;;;;;;33.75;4.65;;;;;;;;;;5067091;28;20059;-72
2022/01/03 04:46:09;;;;;;;35.78;6.20;;;;;;;;;;5073256;28;20060;-70
2022/01/03 04:48:39;;;;;;;37.90;6.18;;;;;;;;;;5072918;28;20501;-70
2022/01/03 04:51:06;;;;;;;39.03;5.43;;;;;;;;;;5066551;28;20049;-73
2022/01/03 04:53:36;;;;;;;38.90;6.47;;;;;;;;;;5073966;28;20059;-71
2022/01/03 04:56:02;;;;;;;33.17;5.72;;;;;;;;;;5064945;28;20045;-71
2022/01/03 04:58:28;;;;;;;39.67;4.80;;;;;;;;;;5052878;28;20057;-72
2022/01/03 05:00:55;;;;;;;42.47;6.45;;;;;;;;;;5059406;28;20059;-72
2022/01/03 05:03:21;;;;;;;37.17;6.28;;;;;;;;;;5073290;28;20057;-71
2022/01/03 05:05:47;;;;;;;31.13;5.38;;;;;;;;;;5069506;28;20052;-73
2022/01/03 05:08:14;;;;;;;34.75;5.18;;;;;;;;;;5065847;28;20057;-70
2022/01/03 05:10:40;;;;;;;42.80;6.22;;;;;;;;;;5060351;28;20491;-72
2022/01/03 05:13:06;;;;;;;45.05;6.30;;;;;;;;;;5052970;28;20049;-70
2022/01/03 05:15:32;;;;;;;29.23;6.10;;;;;;;;;;5056662;28;20060;-73
2022/01/03 05:17:59;;;;;;;33.78;5.32;;;;;;;;;;5057528;28;20049;-72
2022/01/03 05:20:25;;;;;;;27.30;4.45;;;;;;;;;;5063526;28;20050;-71
2022/01/03 05:22:52;;;;;;;34.38;4.57;;;;;;;;;;5061145;28;20061;-72
2022/01/03 05:25:18;;;;;;;35.78;6.93;;;;;;;;;;5073837;28;20053;-71
2022/01/03 05:27:44;;;;;;;32.63;5.47;;;;;;;;;;5073744;28;20049;-72
2022/01/03 05:30:11;;;;;;;35.60;5.47;;;;;;;;;;5073526;28;20132;-71
2022/01/03 05:32:43;;;;;;;33.50;6.72;;;;;;;;;;5078046;28;20053;-71
2022/01/03 05:35:09;;;;;;;37.97;5.55;;;;;;;;;;5073351;28;20089;-71
2022/01/03 05:37:35;;;;;;;35.13;5.05;;;;;;;;;;5073870;28;20059;-72
2022/01/03 05:40:02;;;;;;;40.63;5.65;;;;;;;;;;5073466;28;20527;-72
2022/01/03 05:42:28;;;;;;;29.33;5.00;;;;;;;;;;5071628;28;20498;-70
2022/01/03 05:44:55;;;;;;;37.17;6.13;;;;;;;;;;5071892;28;20063;-73
2022/01/03 05:47:22;;;;;;;39.35;5.50;;;;;;;;;;5073949;28;20052;-73
2022/01/03 05:49:48;;;;;;;37.28;5.43;;;;;;;;;;5073256;28;20053;-72
2022/01/03 05:52:14;;;;;;;41.00;6.68;;;;;;;;;;5068145;28;20053;-72
2022/01/03 05:54:41;;;;;;;36.30;6.43;;;;;;;;;;5054389;28;20176;-72
2022/01/03 05:57:07;;;;;;;36.03;5.63;;;;;;;;;;5053427;28;20060;-70
2022/01/03 05:59:33;;;;;;;40.90;5.97;;;;;;;;;;5053688;28;20064;-71
2022/01/03 06:01:59;;;;;;;28.23;4.57;;;;;;;;;;5055070;28;20057;-72
2022/01/03 06:04:39;;;;;;;33.10;5.18;;;;;;;;;;5060582;28;20057;-71
2022/01/03 06:07:07;;;;;;;27.17;4.90;;;;;;;;;;5063549;28;20056;-71
2022/01/03 06:09:34;;;;;;;30.95;5.88;;;;;;;;;;5071539;28;20111;-72
2022/01/03 06:12:00;;;;;;;27.65;5.35;;;;;;;;;;5072852;28;20057;-72
2022/01/03 06:14:27;;;;;;;30.65;5.60;;;;;;;;;;5070478;28;20053;-72
2022/01/03 06:16:54;;;;;;;24.33;4.63;;;;;;;;;;5057700;28;20080;-72
2022/01/03 06:19:21;;;;;;;31.52;5.57;;;;;;;;;;5069365;28;20057;-72
2022/01/03 06:21:47;;;;;;;35.33;4.60;;;;;;;;;;5053421;28;20050;-71
2022/01/03 06:24:15;;;;;;;39.92;6.10;;;;;;;;;;5052817;28;20493;-72
2022/01/03 06:26:42;;;;;;;27.27;4.85;;;;;;;;;;5053555;28;20894;-71
2022/01/03 06:29:09;;;;;;;30.02;5.60;;;;;;;;;;5050878;28;20059;-71
2022/01/03 06:31:35;;;;;;;31.95;4.75;;;;;;;;;;5053349;28;20053;-72
2022/01/03 06:34:02;;;;;;;25.65;4.80;;;;;;;;;;5070043;28;20485;-71
2022/01/03 06:36:28;;;;;;;32.72;5.15;;;;;;;;;;5059547;28;20053;-72
2022/01/03 06:38:58;;;;;;;33.28;6.05;;;;;;;;;;5058156;28;20512;-72
2022/01/03 06:41:24;;;;;;;24.15;4.68;;;;;;;;;;5063903;28;20052;-72
2022/01/03 06:43:51;;;;;;;31.20;5.78;;;;;;;;;;5051304;28;20053;-71
2022/01/03 06:46:17;;;;;;;26.70;5.22;;;;;;;;;;5064836;28;20408;-72
2022/01/03 06:48:46;;;;;;;23.40;4.55;;;;;;;;;;5056867;28;20142;-72
2022/01/03 06:51:12;;;;;;;27.77;5.20;;;;;;;;;;5070613;28;20332;-69
2022/01/03 06:53:39;;;;;;;35.10;4.97;;;;;;;;;;5072694;28;20064;-70
2022/01/03 06:56:05;;;;;;;25.33;5.82;;;;;;;;;;5075874;28;20059;-71
2022/01/03 06:58:32;;;;;;;31.35;4.43;;;;;;;;;;5080005;28;20053;-71
2022/01/03 07:00:58;;;;;;;23.70;4.28;;;;;;;;;;5074362;28;20133;-70
2022/01/03 07:03:25;;;;;;;61.08;7.53;;;;;;;;;;5072676;28;20057;-70
2022/01/03 07:05:51;;;;;;;31.23;5.60;;;;;;;;;;5074991;28;20057;-72
2022/01/03 07:08:20;;;;;;;31.77;4.45;;;;;;;;;;5084651;28;20052;-70
2022/01/03 07:10:47;;;;;;;29.52;4.78;;;;;;;;;;5079906;28;20059;-70
2022/01/03 07:13:13;;;;;;;27.67;4.63;;;;;;;;;;5074556;28;20057;-71
2022/01/03 07:21:10;;;;;;;29.97;5.23;;;;;;;;;;5074748;28;20188;-70
2022/01/03 07:23:37;;;;;;;25.00;3.50;;;;;;;;;;5074422;28;20418;-71
2022/01/03 07:26:03;;;;;;;24.13;4.53;;;;;;;;;;5068369;28;20049;-70
2022/01/03 07:28:30;;;;;;;21.85;4.75;;;;;;;;;;5071827;28;20057;-70
2022/01/03 07:30:56;;;;;;;27.88;4.47;;;;;;;;;;5072137;28;20057;-70
2022/01/03 07:33:22;;;;;;;24.23;5.13;;;;;;;;;;5083434;28;20059;-70
2022/01/03 07:35:49;;;;;;;25.92;5.28;;;;;;;;;;5072930;28;20432;-70
2022/01/03 07:38:15;;;;;;;22.77;4.47;;;;;;;;;;5072960;28;20063;-69
2022/01/03 07:40:41;;;;;;;28.58;4.07;;;;;;;;;;5073211;28;20942;-70
2022/01/03 07:43:08;;;;;;;22.25;3.70;;;;;;;;;;5073100;28;20512;-70
2022/01/03 07:45:34;;;;;;;26.35;4.03;;;;;;;;;;5073432;28;20060;-70
2022/01/03 07:48:00;;;;;;;24.67;4.45;;;;;;;;;;5075217;28;20063;-71
2022/01/03 07:50:27;;;;;;;20.70;4.95;;;;;;;;;;5078025;28;20055;-71
2022/01/03 07:52:53;;;;;;;25.10;4.70;;;;;;;;;;5073000;28;20049;-70
2022/01/03 07:55:20;;;;;;;28.40;5.22;;;;;;;;;;5072227;28;20056;-69
2022/01/03 07:57:46;;;;;;;27.52;4.43;;;;;;;;;;5071182;28;20088;-70
2022/01/03 08:00:16;;;;;;;24.40;4.20;;;;;;;;;;5072851;28;20057;-70
2022/01/03 08:02:42;;;;;;;26.70;5.20;;;;;;;;;;5075010;28;20061;-69
2022/01/03 08:05:10;;;;;;;33.88;5.47;;;;;;;;;;5071511;28;20155;-68
2022/01/03 08:07:36;;;;;;;43.65;5.90;;;;;;;;;;5072577;28;20397;-70
2022/01/03 08:10:04;;;;;;;26.10;3.75;;;;;;;;;;5071419;28;20057;-69
2022/01/03 08:12:31;;;;;;;26.42;3.92;;;;;;;;;;5072330;28;20983;-70
2022/01/03 08:14:57;;;;;;;24.95;5.28;;;;;;;;;;5070784;28;20508;-68
2022/01/03 08:17:23;;;;;;;29.50;4.57;;;;;;;;;;5072338;28;20060;-70
2022/01/03 08:19:49;;;;;;;30.00;4.97;;;;;;;;;;5072233;28;20045;-67
2022/01/03 08:22:17;;;;;;;28.23;5.57;;;;;;;;;;5071179;28;20059;-72
2022/01/03 08:24:44;;;;;;;25.10;5.15;;;;;;;;;;5075096;28;20052;-68
2022/01/03 08:27:10;;;;;;;26.58;4.32;;;;;;;;;;5072165;28;20094;-70
2022/01/03 08:29:36;;;;;;;29.35;5.68;;;;;;;;;;5079708;28;20060;-70
2022/01/03 08:32:03;;;;;;;27.25;5.05;;;;;;;;;;5078462;28;20532;-69
2022/01/03 08:34:30;;;;;;;21.73;4.93;;;;;;;;;;5072417;28;20057;-70
2022/01/03 08:36:59;;;;;;;26.42;4.30;;;;;;;;;;5069381;28;20919;-69
2022/01/03 08:39:26;;;;;;;28.83;3.97;;;;;;;;;;5071024;28;20053;-70
2022/01/03 08:41:52;;;;;;;27.77;5.03;;;;;;;;;;5073154;28;20056;-70
2022/01/03 08:44:18;;;;;;;33.22;6.05;;;;;;;;;;5063363;28;20053;-71
2022/01/03 08:46:46;;;;;;;25.10;4.30;;;;;;;;;;5071354;28;20049;-70
2022/01/03 08:49:13;;;;;;;25.25;4.15;;;;;;;;;;5067170;28;20060;-70
2022/01/03 08:51:41;;;;;;;19.98;4.32;;;;;;;;;;5075027;28;20061;-70
2022/01/03 08:54:07;;;;;;;31.10;4.13;;;;;;;;;;5063444;28;20472;-69
2022/01/03 08:56:34;;;;;;;29.45;4.88;;;;;;;;;;5069429;28;20318;-69
2022/01/03 08:59:02;;;;;;;30.33;5.57;;;;;;;;;;5075091;28;20053;-70
2022/01/03 09:01:28;;;;;;;34.97;5.22;;;;;;;;;;5071462;28;20579;-69
2022/01/03 09:03:55;;;;;;;26.67;4.47;;;;;;;;;;5072708;28;20065;-70
2022/01/03 09:06:21;;;;;;;23.65;4.63;;;;;;;;;;5072014;28;20049;-69
2022/01/03 09:08:48;;;;;;;26.08;5.28;;;;;;;;;;5071163;28;20136;-70
2022/01/03 09:11:15;;;;;;;23.13;3.72;;;;;;;;;;5071398;28;20105;-71
2022/01/03 09:13:41;;;;;;;30.40;4.57;;;;;;;;;;5071226;28;20053;-71
2022/01/03 09:16:07;;;;;;;23.45;4.32;;;;;;;;;;5071007;28;20067;-70
2022/01/03 09:18:34;;;;;;;33.03;5.35;;;;;;;;;;5069920;28;20049;-70
2022/01/03 09:21:01;;;;;;;22.25;4.70;;;;;;;;;;5071257;28;20053;-70
2022/01/03 09:23:31;;;;;;;20.55;5.45;;;;;;;;;;5070672;28;20497;-70
2022/01/03 09:28:49;;;;;;;28.80;4.80;;;;;;;;;;5069042;28;20577;-70
2022/01/03 09:31:16;;;;;;;26.25;4.45;;;;;;;;;;5071339;28;20053;-70
2022/01/03 09:33:43;;;;;;;21.80;4.07;;;;;;;;;;5067234;28;20053;-71
2022/01/03 09:36:09;;;;;;;30.65;4.72;;;;;;;;;;5072063;28;20049;-70
2022/01/03 09:38:36;;;;;;;19.63;3.88;;;;;;;;;;5067466;28;20124;-70
2022/01/03 09:41:03;;;;;;;34.17;4.47;;;;;;;;;;5071468;28;20152;-69
2022/01/03 09:43:33;;;;;;;32.47;4.75;;;;;;;;;;5071316;28;20087;-70
2022/01/03 09:46:00;;;;;;;28.90;4.25;;;;;;;;;;5070373;28;20107;-70
2022/01/03 09:48:27;;;;;;;25.25;5.15;;;;;;;;;;5066071;28;20060;-70
2022/01/03 09:50:55;;;;;;;37.85;5.10;;;;;;;;;;5070310;28;20053;-70
2022/01/03 09:53:22;;;;;;;26.20;5.75;;;;;;;;;;5066609;28;20053;-69
2022/01/03 09:55:49;;;;;;;26.75;4.85;;;;;;;;;;5069317;28;20053;-71
2022/01/03 09:58:15;;;;;;;26.55;4.82;;;;;;;;;;5070803;28;20057;-69
2022/01/03 10:00:41;;;;;;;26.13;4.00;;;;;;;;;;5078871;28;20060;-70
2022/01/03 10:03:08;;;;;;;23.15;5.65;;;;;;;;;;5069146;28;20053;-69
2022/01/03 10:05:36;;;;;;;24.38;4.55;;;;;;;;;;5069770;28;20059;-72
2022/01/03 10:08:02;;;;;;;29.77;4.60;;;;;;;;;;5071248;28;20057;-70
2022/01/03 10:10:34;;;;;;;22.85;3.92;;;;;;;;;;5070787;28;20091;-69
2022/01/03 10:13:00;;;;;;;26.10;5.38;;;;;;;;;;5070420;28;20065;-72
2022/01/03 10:15:27;;;;;;;27.80;4.65;;;;;;;;;;5070380;28;20057;-71
2022/01/03 10:17:54;;;;;;;28.17;5.03;;;;;;;;;;5068087;28;20057;-71
2022/01/03 10:20:20;;;;;;;24.83;6.47;;;;;;;;;;5071056;28;20171;-69
2022/01/03 10:22:46;;;;;;;23.77;3.88;;;;;;;;;;5077247;28;20052;-69
2022/01/03 10:25:16;;;;;;;25.50;5.18;;;;;;;;;;5069376;28;20410;-69
2022/01/03 10:27:55;;;;;;;24.67;4.00;;;;;;;;;;5068796;28;20059;-68
2022/01/03 10:30:42;;;;;;;25.67;6.55;;;;;;;;;;5070301;28;20063;-68
2022/01/03 10:33:19;;;;;;;33.50;4.85;;;;;;;;;;5068442;28;20543;-69
2022/01/03 10:35:47;;;;;;;31.95;5.78;;;;;;;;;;5070116;28;20063;-73
2022/01/03 10:38:32;;;;;;;35.08;5.25;;;;;;;;;;5066587;28;20135;-69
2022/01/03 10:41:27;;;;;;;36.40;5.95;;;;;;;;;;5072577;28;20049;-71
2022/01/03 10:43:55;;;;;;;25.35;3.95;;;;;;;;;;5064986;28;20057;-69
2022/01/03 10:46:26;;;;;;;24.65;4.72;;;;;;;;;;5070060;28;20049;-71
2022/01/03 10:48:53;;;;;;;23.80;3.65;;;;;;;;;;5074288;28;20394;-72
2022/01/03 10:51:24;;;;;;;27.60;4.28;;;;;;;;;;5070729;28;20248;-72
2022/01/03 10:53:53;;;;;;;28.27;4.25;;;;;;;;;;5080279;28;20136;-71
2022/01/03 10:56:20;;;;;;;27.75;4.90;;;;;;;;;;5091805;28;20056;-71
2022/01/03 10:59:02;;;;;;;27.42;5.43;;;;;;;;;;5083345;28;20056;-71
2022/01/03 11:01:32;;;;;;;37.53;6.28;;;;;;;;;;5072525;28;20045;-72
2022/01/03 11:04:01;;;;;;;38.30;7.25;;;;;;;;;;5071501;28;20088;-71
2022/01/03 11:11:46;;;;;;;20.00;4.40;;;;;;;;;;5065774;28;20053;-71
2022/01/03 11:14:30;;;;;;;30.95;6.28;;;;;;;;;;5070222;28;20050;-71
2022/01/03 11:16:57;;;;;;;25.40;4.60;;;;;;;;;;5070030;28;20060;-70
2022/01/03 11:19:39;;;;;;;30.25;5.25;;;;;;;;;;5081814;28;20568;-71
2022/01/03 11:22:05;;;;;;;31.83;4.20;;;;;;;;;;5090753;28;20049;-71
2022/01/03 11:24:32;;;;;;;30.85;5.15;;;;;;;;;;5090626;28;20052;-70
2022/01/03 11:27:00;;;;;;;24.98;4.25;;;;;;;;;;5071507;28;20055;-70
2022/01/03 11:29:31;;;;;;;25.73;4.28;;;;;;;;;;5071569;28;20084;-72
2022/01/03 11:31:59;;;;;;;34.22;4.78;;;;;;;;;;5070611;28;20060;-71
2022/01/03 11:34:26;;;;;;;24.23;4.05;;;;;;;;;;5070284;28;20394;-70
2022/01/03 11:36:57;;;;;;;24.85;5.00;;;;;;;;;;5072185;28;20052;-71
2022/01/03 11:39:25;;;;;;;31.58;4.80;;;;;;;;;;5072431;28;20057;-71
2022/01/03 11:41:53;;;;;;;23.02;4.28;;;;;;;;;;5074522;28;20049;-72
2022/01/03 11:44:19;;;;;;;28.73;4.88;;;;;;;;;;5071842;28;20140;-71
2022/01/03 11:46:46;;;;;;;25.52;4.88;;;;;;;;;;5076835;28;20515;-70
2022/01/03 11:49:14;;;;;;;27.20;4.93;;;;;;;;;;5074318;28;20045;-69
2022/01/03 11:51:41;;;;;;;33.10;4.60;;;;;;;;;;5079936;28;20052;-70
2022/01/03 11:54:09;;;;;;;26.23;5.07;;;;;;;;;;5075008;28;20140;-71
2022/01/03 11:56:41;;;;;;;29.42;4.75;;;;;;;;;;5071765;28;20057;-70
2022/01/03 12:04:25;;;;;;;17.50;3.88;;;;;;;;;;5063781;28;20064;-70
2022/01/03 12:07:01;;;;;;;26.90;5.97;;;;;;;;;;5072551;28;20064;-71
2022/01/03 12:09:29;;;;;;;23.38;4.13;;;;;;;;;;5069839;28;20055;-70
2022/01/03 12:11:56;;;;;;;22.02;5.35;;;;;;;;;;5073932;28;20110;-70
2022/01/03 12:14:23;;;;;;;27.60;6.05;;;;;;;;;;5067280;28;20135;-69
2022/01/03 12:16:49;;;;;;;32.10;5.68;;;;;;;;;;5072993;28;20472;-68
2022/01/03 12:19:21;;;;;;;26.85;5.35;;;;;;;;;;5072310;28;20506;-69
2022/01/03 12:21:49;;;;;;;30.52;5.75;;;;;;;;;;5071342;28;20045;-70
2022/01/03 12:24:28;;;;;;;21.65;4.38;;;;;;;;;;5070137;28;20140;-69
2022/01/03 12:27:11;;;;;;;17.98;4.22;;;;;;;;;;5062763;28;20466;-69
2022/01/03 12:29:52;;;;;;;15.68;4.20;;;;;;;;;;5075995;28;20196;-69
2022/01/03 12:32:25;;;;;;;26.73;5.03;;;;;;;;;;5062257;28;20508;-68
2022/01/03 12:35:07;;;;;;;19.70;4.22;;;;;;;;;;5072933;28;20459;-70
2022/01/03 12:37:34;;;;;;;21.30;4.35;;;;;;;;;;5077198;28;20057;-71
2022/01/03 12:40:03;;;;;;;19.27;4.35;;;;;;;;;;5068334;28;20053;-72
2022/01/03 12:42:45;;;;;;;23.67;4.68;;;;;;;;;;5071347;28;20053;-71
2022/01/03 12:45:12;;;;;;;20.17;4.57;;;;;;;;;;5068446;28;20122;-71
2022/01/03 12:47:41;;;;;;;32.47;5.03;;;;;;;;;;5071465;28;20053;-70
2022/01/03 12:50:27;;;;;;;35.55;5.00;;;;;;;;;;5070689;28;20049;-70
2022/01/03 12:52:58;;;;;;;28.20;5.10;;;;;;;;;;5072502;28;20175;-73
2022/01/03 12:55:36;;;;;;;24.80;3.83;;;;;;;;;;5068570;28;20485;-73
2022/01/03 12:58:03;;;;;;;17.67;3.65;;;;;;;;;;5088951;28;20531;-72
2022/01/03 13:00:39;;;;;;;21.75;3.58;;;;;;;;;;5065329;28;20057;-72
2022/01/03 13:03:25;;;;;;;23.85;3.67;;;;;;;;;;5071772;28;20535;-71
2022/01/03 13:06:11;;;;;;;20.33;3.22;;;;;;;;;;5073215;28;20079;-74
2022/01/03 13:08:39;;;;;;;18.20;3.75;;;;;;;;;;5058949;28;20100;-74
2022/01/03 13:11:06;;;;;;;19.27;4.03;;;;;;;;;;5078093;28;20515;-73
2022/01/03 13:13:32;;;;;;;25.80;4.35;;;;;;;;;;5073730;28;20555;-75
2022/01/03 13:15:58;;;;;;;24.65;3.80;;;;;;;;;;5074943;28;20100;-74
2022/01/03 13:18:25;;;;;;;21.05;3.67;;;;;;;;;;5084029;28;21065;-72
2022/01/03 13:20:55;;;;;;;18.10;3.53;;;;;;;;;;5072418;28;20140;-75
2022/01/03 13:23:21;;;;;;;18.33;3.60;;;;;;;;;;5071644;28;20053;-74
2022/01/03 13:25:47;;;;;;;19.77;3.78;;;;;;;;;;5070405;28;20049;-74
2022/01/03 13:28:14;;;;;;;21.85;3.88;;;;;;;;;;5084909;28;20139;-71
2022/01/03 13:30:57;;;;;;;13.10;2.92;;;;;;;;;;5077113;28;20496;-73
2022/01/03 13:33:24;;;;;;;18.50;3.72;;;;;;;;;;5071498;28;20074;-74
2022/01/03 13:36:00;;;;;;;20.30;3.88;;;;;;;;;;5062993;28;20053;-73
2022/01/03 13:38:30;;;;;;;21.10;3.90;;;;;;;;;;5056623;28;20543;-74
2022/01/03 13:41:12;;;;;;;17.45;3.85;;;;;;;;;;5069983;28;20087;-70
2022/01/03 13:43:46;;;;;;;21.80;3.72;;;;;;;;;;5068257;28;20528;-72
2022/01/03 13:49:14;;;;;;;14.73;3.55;;;;;;;;;;5067855;28;20058;-72
2022/01/03 13:51:45;;;;;;;16.13;3.90;;;;;;;;;;5066777;28;20056;-71
2022/01/03 13:54:25;;;;;;;23.33;3.38;;;;;;;;;;5059085;28;20095;-72
2022/01/03 13:56:52;;;;;;;14.40;3.75;;;;;;;;;;5071850;28;20507;-72
2022/01/03 13:59:20;;;;;;;15.43;2.83;;;;;;;;;;5072507;28;20049;-70
2022/01/03 14:01:48;;;;;;;20.38;3.65;;;;;;;;;;5062507;28;20477;-72
2022/01/03 14:04:15;;;;;;;17.17;2.95;;;;;;;;;;5070580;28;20523;-70
2022/01/03 14:06:42;;;;;;;15.25;3.28;;;;;;;;;;5069137;28;20534;-72
2022/01/03 14:09:09;;;;;;;13.07;2.63;;;;;;;;;;5070295;28;20485;-71
2022/01/03 14:12:06;;;;;;;15.23;3.00;;;;;;;;;;5070093;28;20073;-71
2022/01/03 14:14:35;;;;;;;17.48;3.38;;;;;;;;;;5055476;28;20049;-70
2022/01/03 14:17:04;;;;;;;16.95;3.40;;;;;;;;;;5070959;28;20189;-68
2022/01/03 14:19:30;;;;;;;9.88;3.20;;;;;;;;;;5084880;28;20256;-71
2022/01/03 14:22:07;;;;;;;9.98;2.58;;;;;;;;;;5072904;28;20487;-71
2022/01/03 14:24:33;;;;;;;14.48;3.70;;;;;;;;;;5071519;28;20057;-73
2022/01/03 14:27:00;;;;;;;16.30;2.90;;;;;;;;;;5072742;28;20103;-69
2022/01/03 14:29:44;;;;;;;16.35;3.10;;;;;;;;;;5071153;28;20103;-72
2022/01/03 14:32:12;;;;;;;20.38;2.95;;;;;;;;;;5070696;28;20049;-72
2022/01/03 14:34:39;;;;;;;10.57;2.58;;;;;;;;;;5077982;28;20090;-70
2022/01/03 14:37:05;;;;;;;15.70;2.53;;;;;;;;;;5085447;28;20052;-69
2022/01/03 14:39:54;;;;;;;13.23;2.28;;;;;;;;;;5063692;27;20069;-74
2022/01/03 14:42:39;;;;;;;20.63;4.13;;;;;;;;;;5028418;28;24019;-72
2022/01/03 14:45:05;;;;;;;;;;;;;;;;;;5028785;28;20054;-68
2022/01/03 14:47:32;;;;;;;15.68;2.90;;;;;;;;;;5029344;28;46125;-75
2022/01/03 14:50:02;;;;;;;18.08;2.58;;;;;;;;;;5032157;28;20065;-74
2022/01/03 14:52:33;;;;;;;17.50;3.13;;;;;;;;;;5029695;28;20917;-71
2022/01/03 14:54:59;;;;;;;12.02;2.35;;;;;;;;;;5030259;28;20540;-70
2022/01/03 14:57:29;;;;;;;15.55;3.33;;;;;;;;;;5029895;28;20057;-73
2022/01/03 15:00:00;;;;;;;12.77;2.35;;;;;;;;;;5032685;28;20140;-72
2022/01/03 15:02:27;;;;;;;13.93;2.55;;;;;;;;;;5030065;28;20144;-73
2022/01/03 15:04:57;;;;;;;16.38;2.70;;;;;;;;;;5030443;28;20137;-72